Search for airport 
image banner adimage banner adimage banner ad
image banner ad

18CN - Ucsf Medical Center At Mission Bay

Located in San Francisco, United States

ICAO - 18CN, IATA -

Data provided by Airmate  

General information

Coordinates: N37°45'57" W122°23'25"
Elevation is 156 feet MSL.
 
View others Airports in California

Operational data

Special qualification required
Current time UTC:
Current local time:
Weather at : KOAK - Metropolitan Oakland Intl ( 16 km )
METAR: KOAK 221353Z 22008KT 10SM FEW009 OVC027 18/12 A2992 RMK AO2 SLP131 T01780122
TAF: KOAK 221122Z 2212/2318 24011KT P6SM SCT016 BKN023 FM221700 26006KT P6SM FEW025 FM222100 25013G17KT P6SM SKC FM230300 27011KT P6SM FEW015 FM230900 26007KT P6SM SCT015 OVC035 FM231200 VRB06KT P6SM BKN020
View NOTAMs / SUP AIP / TFR affecting this airport [VIEW]
Communications frequencies: [VIEW]

Runways:

Airport contact information

Address: San Francisco United States

Satellite view of 18CN